Time;durP1;ratioP1;P1;durP2;ratioP2;P2;SDS_P1;SDS_P2;PMS_P1;PMS_P2;Temp;Humidity;BMP_temperature;BMP_pressure;BME280_temperature;BME280_humidity;BME280_pressure;Samples;Min_cycle;Max_cycle;Signal;HPM_P1;HPM_P2
2021/06/22 00:01:38;;;;;;;4.90;4.40;;;19.70;99.90;;;;;;4999925;28;20191;-61
2021/06/22 00:04:04;;;;;;;4.63;4.23;;;19.70;99.90;;;;;;4992854;28;20191;-60
2021/06/22 00:06:29;;;;;;;3.50;3.30;;;19.80;99.90;;;;;;4991930;28;20306;-61
2021/06/22 00:08:55;;;;;;;4.40;4.00;;;19.80;99.90;;;;;;4999473;28;20203;-61
2021/06/22 00:11:21;;;;;;;4.53;4.00;;;19.90;99.90;;;;;;4992133;28;20279;-60
2021/06/22 00:13:46;;;;;;;4.80;4.10;;;19.90;99.90;;;;;;4999606;28;20267;-60
2021/06/22 00:16:12;;;;;;;4.83;4.20;;;20.00;99.90;;;;;;5001795;28;20613;-60
2021/06/22 00:18:38;;;;;;;5.20;4.30;;;20.10;99.90;;;;;;5004937;28;20433;-60
2021/06/22 00:21:04;;;;;;;4.33;3.97;;;20.20;99.90;;;;;;4996744;28;20687;-61
2021/06/22 00:23:29;;;;;;;3.85;3.40;;;20.20;99.90;;;;;;5000260;28;20187;-60
2021/06/22 00:25:56;;;;;;;3.57;3.30;;;20.20;99.90;;;;;;4994815;28;20209;-61
2021/06/22 00:28:21;;;;;;;4.13;3.72;;;20.10;99.90;;;;;;5008047;28;20215;-60
2021/06/22 00:30:47;;;;;;;4.03;3.63;;;20.10;99.90;;;;;;4998241;28;20183;-60
2021/06/22 00:33:13;;;;;;;4.50;4.10;;;20.20;99.90;;;;;;4999157;28;20692;-61
2021/06/22 00:35:38;;;;;;;4.73;4.23;;;20.10;99.90;;;;;;4993689;28;20187;-60
2021/06/22 00:38:04;;;;;;;4.80;4.40;;;20.00;99.90;;;;;;4993127;28;20291;-60
2021/06/22 00:40:30;;;;;;;4.20;3.90;;;20.00;99.90;;;;;;4999777;28;20277;-60
2021/06/22 00:42:55;;;;;;;5.50;4.30;;;19.90;99.90;;;;;;4993186;28;20180;-60
2021/06/22 00:45:29;;;;;;;4.43;4.03;;;19.90;99.90;;;;;;4986720;28;20181;-60
2021/06/22 00:47:55;;;;;;;4.28;3.97;;;19.70;99.90;;;;;;5010911;28;20217;-62
2021/06/22 00:50:21;;;;;;;5.07;4.68;;;19.70;99.90;;;;;;4990854;28;20551;-61
2021/06/22 00:52:47;;;;;;;4.90;4.50;;;19.80;99.90;;;;;;4993748;28;20198;-61
2021/06/22 00:55:13;;;;;;;7.00;4.30;;;19.90;99.90;;;;;;4990822;28;20222;-60
2021/06/22 00:57:40;;;;;;;5.07;4.68;;;19.90;99.90;;;;;;5000427;28;20204;-60
2021/06/22 01:00:09;;;;;;;4.85;4.45;;;19.90;99.90;;;;;;4992380;28;20199;-61
2021/06/22 01:02:35;;;;;;;4.40;4.00;;;19.80;99.90;;;;;;4996914;28;20197;-60
2021/06/22 01:05:01;;;;;;;5.20;4.80;;;19.80;99.90;;;;;;4992728;28;20274;-61
2021/06/22 01:07:27;;;;;;;4.60;4.30;;;19.90;99.90;;;;;;4997470;28;20217;-61
2021/06/22 01:09:54;;;;;;;4.35;3.95;;;20.00;99.90;;;;;;4997260;28;20211;-61
2021/06/22 01:12:20;;;;;;;3.97;3.70;;;20.00;99.90;;;;;;5002854;28;20605;-61
2021/06/22 01:14:46;;;;;;;4.63;4.23;;;20.10;99.90;;;;;;4992728;28;20188;-60
2021/06/22 01:17:12;;;;;;;7.83;3.90;;;20.00;99.90;;;;;;4993269;28;20207;-60
2021/06/22 01:19:38;;;;;;;4.97;4.45;;;20.00;99.90;;;;;;4999888;28;20273;-60
2021/06/22 01:22:07;;;;;;;4.37;4.07;;;19.90;99.90;;;;;;4993748;28;20275;-62
2021/06/22 01:24:33;;;;;;;4.45;4.05;;;19.90;99.90;;;;;;4984897;28;20446;-61
2021/06/22 01:27:00;;;;;;;5.68;4.20;;;19.90;99.90;;;;;;4991366;28;20217;-61
2021/06/22 01:29:27;;;;;;;4.38;3.97;;;19.90;99.90;;;;;;4992969;28;20909;-61
2021/06/22 01:31:55;;;;;;;5.18;4.78;;;19.80;99.90;;;;;;4994110;28;20269;-60
2021/06/22 01:34:30;;;;;;;4.60;4.20;;;19.60;99.90;;;;;;4997877;28;20205;-62
2021/06/22 01:36:58;;;;;;;4.60;4.30;;;19.70;99.90;;;;;;5001144;28;20676;-61
2021/06/22 01:39:23;;;;;;;5.45;4.00;;;19.70;99.90;;;;;;4990508;28;20681;-61
2021/06/22 01:41:49;;;;;;;4.87;4.47;;;19.70;99.90;;;;;;4992800;28;20198;-60
2021/06/22 01:44:15;;;;;;;4.90;4.47;;;19.40;99.90;;;;;;4996672;28;20198;-61
2021/06/22 01:46:41;;;;;;;4.70;4.30;;;19.40;99.90;;;;;;5002176;28;20183;-60
2021/06/22 01:49:07;;;;;;;5.10;4.70;;;19.20;99.90;;;;;;4997550;28;20199;-60
2021/06/22 01:51:33;;;;;;;6.77;5.60;;;19.00;99.90;;;;;;4991619;28;20661;-61
2021/06/22 01:54:00;;;;;;;4.43;4.13;;;19.00;99.90;;;;;;4991043;28;20198;-61
2021/06/22 01:56:27;;;;;;;4.38;3.97;;;19.00;99.90;;;;;;4990612;28;20234;-60
2021/06/22 01:58:53;;;;;;;4.70;4.40;;;19.00;99.90;;;;;;4986674;28;20211;-60
2021/06/22 02:01:19;;;;;;;4.73;4.33;;;19.00;99.90;;;;;;4990938;28;20194;-60
2021/06/22 02:03:46;;;;;;;6.30;4.30;;;18.90;99.90;;;;;;4991514;28;20438;-60
2021/06/22 02:06:11;;;;;;;4.18;3.88;;;18.80;99.90;;;;;;4988553;28;20183;-60
2021/06/22 02:08:37;;;;;;;4.70;4.20;;;18.70;99.90;;;;;;5001211;28;20222;-60
2021/06/22 02:11:03;;;;;;;5.17;4.40;;;18.70;99.90;;;;;;4989854;28;20724;-60
2021/06/22 02:13:29;;;;;;;5.07;4.53;;;18.70;99.90;;;;;;4992258;28;20190;-61
2021/06/22 02:15:55;;;;;;;4.60;4.25;;;18.50;99.90;;;;;;4996128;28;20670;-60
2021/06/22 02:18:21;;;;;;;5.57;4.78;;;18.50;99.90;;;;;;4993956;28;20304;-60
2021/06/22 02:20:47;;;;;;;3.97;3.67;;;18.40;99.90;;;;;;4994582;28;20615;-60
2021/06/22 02:23:13;;;;;;;5.63;4.00;;;18.50;99.90;;;;;;4993029;28;20446;-60
2021/06/22 02:25:39;;;;;;;5.00;3.90;;;18.50;99.90;;;;;;5002835;28;20480;-60
2021/06/22 02:28:07;;;;;;;4.82;3.72;;;18.60;99.90;;;;;;4991450;28;20295;-60
2021/06/22 02:30:34;;;;;;;4.30;3.90;;;18.60;99.90;;;;;;4999676;28;20274;-60
2021/06/22 02:33:00;;;;;;;4.25;3.85;;;18.40;99.90;;;;;;4997827;28;20294;-60
2021/06/22 02:35:26;;;;;;;3.93;3.70;;;18.40;99.90;;;;;;4990932;28;20624;-59
2021/06/22 02:37:52;;;;;;;4.90;4.30;;;18.40;99.90;;;;;;4991907;28;20207;-60
2021/06/22 02:40:21;;;;;;;4.38;4.07;;;18.40;99.90;;;;;;4997924;28;20191;-60
2021/06/22 02:42:47;;;;;;;5.30;4.15;;;18.30;99.90;;;;;;4989972;28;20194;-59
2021/06/22 02:45:14;;;;;;;3.85;3.55;;;18.50;99.90;;;;;;4991402;28;20564;-60
2021/06/22 02:47:41;;;;;;;5.93;4.30;;;18.60;99.90;;;;;;4991959;28;20266;-60
2021/06/22 02:50:10;;;;;;;4.47;4.07;;;18.60;99.90;;;;;;5007397;28;20210;-60
2021/06/22 02:52:36;;;;;;;6.00;3.83;;;18.50;99.90;;;;;;4993027;28;20218;-60
2021/06/22 02:55:02;;;;;;;4.60;4.20;;;18.40;99.90;;;;;;4997263;28;20217;-60
2021/06/22 02:57:28;;;;;;;4.10;3.80;;;18.40;99.90;;;;;;4998893;28;20260;-59
2021/06/22 02:59:54;;;;;;;4.20;3.87;;;18.40;99.90;;;;;;4997011;28;20183;-60
2021/06/22 03:02:19;;;;;;;4.40;4.00;;;18.30;99.90;;;;;;5001146;28;20271;-61
2021/06/22 03:04:45;;;;;;;4.10;3.80;;;18.40;99.90;;;;;;5003752;28;20189;-60
2021/06/22 03:07:10;;;;;;;5.90;3.53;;;18.40;99.90;;;;;;4995912;28;20207;-58
2021/06/22 03:09:36;;;;;;;4.57;3.90;;;18.40;99.90;;;;;;4996151;28;20616;-58
2021/06/22 03:12:02;;;;;;;4.67;4.30;;;18.40;99.90;;;;;;4991623;28;20171;-59
2021/06/22 03:14:28;;;;;;;3.80;3.60;;;18.50;99.90;;;;;;4991200;28;20310;-58
2021/06/22 03:16:53;;;;;;;4.83;4.37;;;18.40;99.90;;;;;;4990065;28;20274;-58
2021/06/22 03:19:19;;;;;;;5.50;4.20;;;18.40;99.90;;;;;;4989313;28;20188;-59
2021/06/22 03:21:47;;;;;;;5.80;3.85;;;18.40;99.90;;;;;;4999506;28;20184;-59
2021/06/22 03:24:14;;;;;;;5.70;4.55;;;18.40;99.90;;;;;;5000791;28;20237;-58
2021/06/22 03:26:40;;;;;;;4.25;3.95;;;18.30;99.90;;;;;;4993279;28;20190;-58
2021/06/22 03:29:06;;;;;;;4.00;3.60;;;18.30;99.90;;;;;;4994209;28;20209;-59
2021/06/22 03:31:33;;;;;;;4.32;4.03;;;18.40;99.90;;;;;;5001235;28;20234;-58
2021/06/22 03:33:59;;;;;;;3.85;3.60;;;18.40;99.90;;;;;;4990139;28;20199;-58
2021/06/22 03:36:24;;;;;;;4.37;4.07;;;18.40;99.90;;;;;;4990813;28;20661;-60
2021/06/22 03:38:50;;;;;;;5.00;4.60;;;18.40;99.90;;;;;;4987771;28;20730;-59
2021/06/22 03:41:17;;;;;;;4.60;3.77;;;18.40;99.90;;;;;;4994144;28;20257;-59
2021/06/22 03:43:43;;;;;;;6.30;4.60;;;18.30;99.90;;;;;;4996825;28;20195;-59
2021/06/22 03:46:08;;;;;;;5.90;4.50;;;18.30;99.90;;;;;;4999557;28;20202;-58
2021/06/22 03:48:34;;;;;;;5.17;4.67;;;18.20;99.90;;;;;;4998608;28;20569;-59
2021/06/22 03:51:00;;;;;;;4.90;4.50;;;18.20;99.90;;;;;;4994353;28;20552;-59
2021/06/22 03:53:26;;;;;;;5.93;5.35;;;18.20;99.90;;;;;;5003870;28;20653;-58
2021/06/22 03:55:52;;;;;;;5.00;4.47;;;18.20;99.90;;;;;;4995093;28;20197;-58
2021/06/22 03:58:18;;;;;;;5.32;4.95;;;18.10;99.90;;;;;;4992662;28;20203;-58
2021/06/22 04:00:43;;;;;;;5.37;4.33;;;18.20;99.90;;;;;;4987129;28;20280;-59
2021/06/22 04:03:14;;;;;;;4.80;4.00;;;18.20;99.90;;;;;;4988775;28;20234;-59
2021/06/22 04:05:40;;;;;;;4.80;4.20;;;18.20;99.90;;;;;;4986593;28;20179;-61
2021/06/22 04:08:06;;;;;;;5.80;4.50;;;18.30;99.90;;;;;;4989069;28;20220;-59
2021/06/22 04:10:32;;;;;;;4.53;4.17;;;18.30;99.90;;;;;;4987179;28;20278;-59
2021/06/22 04:12:58;;;;;;;4.00;3.70;;;18.30;99.90;;;;;;4988025;28;20462;-59
2021/06/22 04:15:24;;;;;;;4.82;4.53;;;18.40;99.90;;;;;;4989496;28;20518;-60
2021/06/22 04:17:49;;;;;;;4.47;4.07;;;18.40;99.90;;;;;;4990182;28;20203;-59
2021/06/22 04:20:15;;;;;;;5.73;4.63;;;18.50;99.90;;;;;;4993775;28;20249;-59
2021/06/22 04:22:41;;;;;;;4.33;4.03;;;18.20;99.90;;;;;;5010641;28;20195;-60
2021/06/22 04:25:07;;;;;;;4.63;4.27;;;18.40;99.90;;;;;;4997942;28;20848;-60
2021/06/22 04:27:33;;;;;;;4.95;4.45;;;18.50;99.90;;;;;;4992156;28;20688;-60
2021/06/22 04:29:59;;;;;;;6.70;4.23;;;18.60;99.90;;;;;;4989886;28;20298;-60
2021/06/22 04:32:24;;;;;;;4.87;4.50;;;18.60;99.90;;;;;;4991657;28;20221;-61
2021/06/22 04:34:51;;;;;;;4.80;4.40;;;18.60;99.90;;;;;;4995896;28;20188;-62
2021/06/22 04:37:17;;;;;;;5.93;5.47;;;18.70;99.90;;;;;;4986490;28;20307;-59
2021/06/22 04:39:43;;;;;;;5.57;5.17;;;18.90;99.90;;;;;;4986313;28;20757;-59
2021/06/22 04:42:08;;;;;;;5.40;5.00;;;18.90;99.90;;;;;;4988194;28;20183;-60
2021/06/22 04:44:34;;;;;;;7.00;6.40;;;19.00;99.90;;;;;;4986670;28;20191;-60
2021/06/22 04:46:59;;;;;;;6.37;5.83;;;19.10;99.90;;;;;;4987369;28;20203;-62
2021/06/22 04:49:25;;;;;;;7.03;6.37;;;19.20;99.90;;;;;;4987484;28;20222;-61
2021/06/22 04:51:51;;;;;;;6.30;5.80;;;19.30;99.90;;;;;;4989389;28;20524;-61
2021/06/22 04:54:17;;;;;;;6.77;6.13;;;19.40;99.90;;;;;;5001005;28;20197;-60
2021/06/22 04:56:45;;;;;;;7.13;6.53;;;19.40;99.90;;;;;;4986968;28;20315;-60
2021/06/22 04:59:10;;;;;;;6.82;6.22;;;19.30;99.90;;;;;;4987688;28;20258;-62
2021/06/22 05:01:37;;;;;;;6.40;5.90;;;19.20;99.90;;;;;;4992371;28;20203;-60
2021/06/22 05:04:03;;;;;;;7.90;6.70;;;19.20;99.90;;;;;;4988585;28;20202;-61
2021/06/22 05:06:29;;;;;;;7.70;7.10;;;19.30;99.90;;;;;;4989462;28;20188;-62
2021/06/22 05:08:54;;;;;;;7.90;6.13;;;19.30;99.90;;;;;;4990929;28;20226;-61
2021/06/22 05:11:20;;;;;;;6.80;6.20;;;19.50;99.90;;;;;;4990235;28;20274;-61
2021/06/22 05:13:45;;;;;;;7.53;6.70;;;19.50;99.90;;;;;;4984738;28;20191;-58
2021/06/22 05:16:11;;;;;;;6.97;6.38;;;19.50;99.90;;;;;;4998041;28;20786;-56
2021/06/22 05:18:37;;;;;;;6.30;5.80;;;19.60;99.90;;;;;;4989448;28;20246;-56
2021/06/22 05:21:03;;;;;;;6.70;6.20;;;19.80;99.90;;;;;;4981106;28;20464;-56
2021/06/22 05:23:29;;;;;;;8.43;7.47;;;20.00;99.90;;;;;;4991568;28;20478;-56
2021/06/22 05:25:55;;;;;;;9.20;8.50;;;19.90;99.90;;;;;;4987439;28;20184;-56
2021/06/22 05:28:20;;;;;;;11.97;9.57;;;20.00;99.90;;;;;;4990422;28;20578;-60
2021/06/22 05:30:46;;;;;;;9.97;8.97;;;19.90;99.90;;;;;;4994207;28;20544;-56
2021/06/22 05:33:12;;;;;;;8.93;8.13;;;19.90;99.90;;;;;;4986659;28;20642;-55
2021/06/22 05:35:37;;;;;;;10.23;9.07;;;20.00;99.90;;;;;;4990833;28;20188;-55
2021/06/22 05:38:04;;;;;;;11.00;9.90;;;20.10;99.90;;;;;;4988433;28;20203;-56
2021/06/22 05:40:29;;;;;;;11.63;10.63;;;20.10;99.90;;;;;;4990019;28;20664;-56
2021/06/22 05:42:55;;;;;;;13.27;10.53;;;20.10;99.90;;;;;;4990104;28;20191;-55
2021/06/22 05:45:21;;;;;;;10.33;9.43;;;20.10;99.90;;;;;;4998924;28;20219;-56
2021/06/22 05:47:47;;;;;;;9.75;8.88;;;20.10;99.90;;;;;;4985155;28;20212;-56
2021/06/22 05:50:12;;;;;;;9.53;8.73;;;20.30;99.90;;;;;;4987577;28;20211;-56
2021/06/22 05:52:38;;;;;;;11.03;9.93;;;20.40;99.90;;;;;;4987290;28;20536;-55
2021/06/22 05:55:16;;;;;;;9.13;8.37;;;20.40;99.90;;;;;;5000054;28;20262;-56
2021/06/22 05:57:47;;;;;;;9.25;8.35;;;20.40;99.90;;;;;;4987860;28;20298;-56
2021/06/22 06:00:14;;;;;;;9.45;8.55;;;20.40;99.90;;;;;;4989560;28;20194;-56
2021/06/22 06:02:40;;;;;;;9.82;8.85;;;20.50;99.90;;;;;;5000113;28;20329;-56
2021/06/22 06:05:06;;;;;;;10.00;8.33;;;20.60;99.90;;;;;;4990827;28;20338;-58
2021/06/22 06:07:31;;;;;;;9.02;8.15;;;20.60;99.90;;;;;;4987377;28;20207;-60
2021/06/22 06:09:57;;;;;;;8.10;7.30;;;20.70;99.90;;;;;;4995766;28;20640;-60
2021/06/22 06:12:22;;;;;;;9.60;8.70;;;20.70;99.90;;;;;;4995973;28;20199;-60
2021/06/22 06:14:48;;;;;;;9.93;9.03;;;20.80;99.90;;;;;;4988763;28;20199;-58
2021/06/22 06:17:15;;;;;;;10.50;9.50;;;20.80;99.90;;;;;;4992628;28;20310;-59
2021/06/22 06:19:40;;;;;;;10.45;9.55;;;20.70;99.90;;;;;;4987390;28;20183;-59
2021/06/22 06:22:06;;;;;;;9.60;8.70;;;20.60;99.90;;;;;;4997449;28;20671;-60
2021/06/22 06:24:32;;;;;;;9.70;8.90;;;20.70;99.90;;;;;;4993330;28;20192;-59
2021/06/22 06:27:03;;;;;;;9.77;8.73;;;20.80;99.90;;;;;;4989126;28;20214;-59
2021/06/22 06:32:00;;;;;;;9.85;8.85;;;20.90;99.90;;;;;;4990268;28;20187;-60
2021/06/22 06:34:26;;;;;;;10.23;9.30;;;21.00;99.90;;;;;;4987242;28;20206;-59
2021/06/22 06:36:52;;;;;;;9.37;8.50;;;20.90;99.90;;;;;;4988207;28;20203;-60
2021/06/22 06:39:17;;;;;;;8.82;8.02;;;20.90;99.90;;;;;;4998938;28;20676;-60
2021/06/22 06:41:43;;;;;;;11.13;8.90;;;21.00;99.90;;;;;;4989032;28;20187;-60
2021/06/22 06:44:08;;;;;;;12.03;9.20;;;21.10;99.90;;;;;;4992794;28;20235;-60
2021/06/22 06:46:34;;;;;;;8.80;8.00;;;21.10;99.90;;;;;;4987403;28;20735;-58
2021/06/22 06:49:00;;;;;;;11.50;9.37;;;21.20;99.90;;;;;;4993686;28;20242;-58
2021/06/22 06:51:25;;;;;;;8.40;7.63;;;21.10;99.90;;;;;;4995551;28;20726;-57
2021/06/22 06:53:51;;;;;;;8.00;7.13;;;21.30;99.90;;;;;;4989010;28;20267;-58
2021/06/22 06:56:16;;;;;;;9.33;8.43;;;21.50;99.90;;;;;;4995619;28;20175;-58
2021/06/22 06:58:42;;;;;;;9.00;8.30;;;21.50;99.90;;;;;;4991027;28;20211;-58
2021/06/22 07:01:08;;;;;;;11.23;10.43;;;21.50;99.90;;;;;;4990009;28;20185;-61
2021/06/22 07:03:34;;;;;;;8.60;7.90;;;21.40;99.90;;;;;;4993625;28;20191;-60
2021/06/22 07:06:00;;;;;;;9.70;8.10;;;21.60;99.90;;;;;;4986989;28;20561;-58
2021/06/22 07:08:26;;;;;;;8.93;8.10;;;21.80;99.90;;;;;;4989758;28;20470;-57
2021/06/22 07:10:51;;;;;;;8.80;7.97;;;21.90;99.90;;;;;;4986889;28;20184;-57
2021/06/22 07:13:17;;;;;;;9.80;8.80;;;21.90;99.90;;;;;;4987840;28;20246;-58
2021/06/22 07:15:43;;;;;;;8.52;7.78;;;22.20;99.90;;;;;;4996602;28;20195;-58
2021/06/22 07:18:09;;;;;;;9.60;8.70;;;22.10;99.90;;;;;;4992754;28;20630;-59
2021/06/22 07:20:36;;;;;;;7.93;7.17;;;22.30;99.90;;;;;;4989159;28;20439;-58
2021/06/22 07:23:01;;;;;;;8.90;7.60;;;22.50;99.90;;;;;;4986426;28;20450;-60
2021/06/22 07:25:27;;;;;;;8.50;7.60;;;22.90;99.90;;;;;;4996623;28;20784;-58
2021/06/22 07:27:54;;;;;;;10.67;6.90;;;23.10;99.90;;;;;;4996485;28;20588;-59
2021/06/22 07:30:23;;;;;;;7.73;6.93;;;23.40;99.90;;;;;;4989545;28;20294;-58
2021/06/22 07:32:53;;;;;;;7.90;7.30;;;23.80;99.90;;;;;;4988850;28;20453;-60
2021/06/22 07:35:19;;;;;;;7.13;6.63;;;24.00;99.90;;;;;;4989171;28;20430;-58
2021/06/22 07:37:46;;;;;;;8.30;7.50;;;24.20;99.90;;;;;;4989486;28;20450;-58
2021/06/22 07:40:12;;;;;;;5.67;5.17;;;24.10;99.90;;;;;;4989717;28;20884;-63
2021/06/22 07:42:38;;;;;;;6.10;5.50;;;24.00;99.90;;;;;;4972615;28;20538;-60
2021/06/22 07:45:06;;;;;;;6.40;5.33;;;24.30;99.90;;;;;;4996275;28;20442;-62
2021/06/22 07:47:32;;;;;;;6.83;6.23;;;24.20;99.90;;;;;;4991194;28;20458;-61
2021/06/22 07:49:57;;;;;;;8.53;6.23;;;24.40;99.90;;;;;;4995730;28;20561;-57
2021/06/22 07:52:23;;;;;;;6.50;6.00;;;24.50;99.90;;;;;;5006020;28;20886;-61
2021/06/22 07:54:49;;;;;;;6.47;5.87;;;25.50;99.90;;;;;;5004871;28;20689;-60
2021/06/22 07:57:15;;;;;;;5.60;5.00;;;27.50;97.60;;;;;;4990001;28;20199;-59
2021/06/22 07:59:41;;;;;;;5.50;5.10;;;28.70;93.70;;;;;;5004182;28;20199;-61
2021/06/22 08:02:07;;;;;;;5.20;4.80;;;28.90;92.70;;;;;;4992508;28;20448;-59
2021/06/22 08:04:33;;;;;;;5.53;4.13;;;29.40;90.90;;;;;;4992800;28;20635;-65
2021/06/22 08:06:59;;;;;;;5.93;4.60;;;28.90;90.80;;;;;;4995859;28;20502;-61
2021/06/22 08:09:24;;;;;;;4.00;3.70;;;28.10;91.70;;;;;;4991292;28;20593;-60
2021/06/22 08:11:50;;;;;;;3.90;3.50;;;27.50;92.40;;;;;;4990614;28;20201;-59
2021/06/22 08:14:15;;;;;;;4.67;4.10;;;26.70;93.00;;;;;;4990221;28;20201;-59
2021/06/22 08:16:42;;;;;;;4.07;3.77;;;26.20;94.80;;;;;;4991426;28;20189;-59
2021/06/22 08:19:07;;;;;;;3.70;3.40;;;25.80;95.50;;;;;;4994835;28;20196;-60
2021/06/22 08:21:34;;;;;;;3.40;3.10;;;25.40;95.90;;;;;;4990181;28;20808;-60
2021/06/22 08:24:00;;;;;;;4.33;3.93;;;24.90;96.60;;;;;;4988598;28;20257;-58
2021/06/22 08:26:26;;;;;;;3.50;3.20;;;24.20;98.00;;;;;;4999525;28;20446;-60
2021/06/22 08:28:52;;;;;;;8.50;3.70;;;24.10;98.80;;;;;;4986254;28;20471;-57
2021/06/22 08:31:21;;;;;;;3.97;3.67;;;24.10;99.30;;;;;;5003973;28;20190;-56
2021/06/22 08:33:47;;;;;;;4.00;3.60;;;24.00;99.90;;;;;;4990689;28;20496;-57
2021/06/22 08:36:13;;;;;;;6.07;3.60;;;23.80;99.90;;;;;;4990535;28;20517;-59
2021/06/22 08:38:39;;;;;;;3.53;3.23;;;23.70;99.90;;;;;;4991062;28;20454;-62
2021/06/22 08:41:06;;;;;;;4.93;4.40;;;23.50;99.90;;;;;;4990692;28;20439;-63
2021/06/22 08:43:32;;;;;;;4.00;3.40;;;23.40;99.90;;;;;;4989260;28;20445;-60
2021/06/22 08:46:02;;;;;;;4.67;4.00;;;23.20;99.90;;;;;;4999228;28;20435;-61
2021/06/22 08:48:28;;;;;;;3.50;3.20;;;23.30;99.90;;;;;;4991141;28;20215;-61
2021/06/22 08:50:54;;;;;;;3.22;2.92;;;23.40;99.90;;;;;;4991925;28;20802;-61
2021/06/22 08:53:20;;;;;;;3.13;2.93;;;23.40;99.90;;;;;;5000138;28;20322;-62
2021/06/22 08:55:47;;;;;;;5.50;5.00;;;23.40;99.90;;;;;;4990932;28;20955;-60
2021/06/22 08:58:15;;;;;;;6.50;5.90;;;23.40;99.90;;;;;;4995650;28;21067;-61
2021/06/22 09:00:44;;;;;;;7.43;6.80;;;23.40;99.90;;;;;;4987613;28;20294;-60
2021/06/22 09:03:23;;;;;;;4.70;4.20;;;23.40;99.90;;;;;;4990893;28;20438;-64
2021/06/22 09:05:53;;;;;;;5.80;5.30;;;23.10;99.90;;;;;;4986036;28;20453;-62
2021/06/22 09:08:37;;;;;;;10.30;5.83;;;23.40;99.90;;;;;;4989880;28;20470;-63
2021/06/22 09:11:14;;;;;;;6.20;5.60;;;23.60;99.90;;;;;;5000907;28;20443;-61
2021/06/22 09:13:42;;;;;;;5.60;5.10;;;23.70;99.90;;;;;;5001308;28;20445;-61
2021/06/22 09:16:12;;;;;;;4.70;4.30;;;23.70;99.90;;;;;;4992561;28;20898;-61
2021/06/22 09:18:41;;;;;;;4.50;3.80;;;23.70;99.90;;;;;;5010023;28;20457;-63
2021/06/22 09:21:18;;;;;;;6.97;6.37;;;23.80;99.90;;;;;;4996920;28;20454;-63
2021/06/22 09:23:45;;;;;;;8.97;8.00;;;23.80;99.90;;;;;;4983418;28;20450;-62
2021/06/22 09:26:20;;;;;;;9.07;7.50;;;23.90;99.90;;;;;;4986967;28;20944;-63
2021/06/22 09:28:47;;;;;;;8.60;7.90;;;23.70;99.90;;;;;;5000975;28;20465;-63
2021/06/22 09:31:18;;;;;;;9.23;8.33;;;23.50;99.90;;;;;;4990329;28;20936;-62
2021/06/22 09:33:48;;;;;;;9.07;8.37;;;23.60;99.90;;;;;;5003142;28;20469;-62
2021/06/22 09:36:16;;;;;;;9.98;7.75;;;23.50;99.90;;;;;;4992556;28;20478;-62
2021/06/22 09:38:49;;;;;;;8.80;8.03;;;23.40;99.90;;;;;;4981543;28;20222;-60
2021/06/22 09:41:19;;;;;;;8.73;7.93;;;23.50;99.90;;;;;;4979621;28;20585;-62
2021/06/22 09:43:47;;;;;;;8.57;7.97;;;23.70;99.90;;;;;;4988469;28;20987;-62
2021/06/22 09:46:15;;;;;;;7.83;7.23;;;23.80;99.90;;;;;;4988188;28;20955;-62
2021/06/22 09:48:48;;;;;;;8.63;8.00;;;23.80;99.90;;;;;;4995873;28;20891;-62
2021/06/22 09:51:14;;;;;;;8.80;7.87;;;24.00;99.90;;;;;;4985059;28;20449;-62
2021/06/22 09:53:40;;;;;;;8.47;7.73;;;24.00;99.90;;;;;;4987681;28;20443;-61
2021/06/22 09:56:18;;;;;;;9.50;8.70;;;24.40;99.90;;;;;;4988668;28;20987;-62
2021/06/22 09:58:47;;;;;;;7.63;6.90;;;24.50;99.90;;;;;;4987364;28;20215;-62
2021/06/22 10:01:34;;;;;;;7.33;6.73;;;24.70;99.90;;;;;;4992562;28;20438;-62
2021/06/22 10:04:19;;;;;;;7.37;6.77;;;24.70;99.90;;;;;;4989970;28;20455;-62
2021/06/22 10:06:59;;;;;;;8.90;8.20;;;24.60;99.90;;;;;;4982242;28;20439;-62
2021/06/22 10:09:29;;;;;;;8.57;7.83;;;24.30;99.90;;;;;;4998748;28;20470;-62
2021/06/22 10:11:59;;;;;;;7.73;7.13;;;24.30;99.90;;;;;;5008987;28;20454;-62
2021/06/22 10:14:28;;;;;;;8.10;7.50;;;24.30;99.90;;;;;;4987528;28;20447;-62
2021/06/22 10:16:57;;;;;;;7.33;6.63;;;24.20;99.90;;;;;;4991627;28;20474;-63
2021/06/22 10:19:23;;;;;;;8.23;7.40;;;24.10;99.90;;;;;;4986989;28;20533;-62
2021/06/22 10:21:52;;;;;;;8.40;7.70;;;24.30;99.90;;;;;;4986354;28;21454;-62
2021/06/22 10:24:18;;;;;;;8.57;7.87;;;24.50;99.90;;;;;;4991169;28;20528;-62
2021/06/22 10:26:46;;;;;;;8.87;8.17;;;24.00;99.90;;;;;;4989630;28;20803;-62
2021/06/22 10:29:15;;;;;;;8.57;7.87;;;24.10;99.90;;;;;;4990038;28;20545;-62
2021/06/22 10:31:40;;;;;;;7.40;6.90;;;23.90;99.90;;;;;;4988087;28;20439;-62
2021/06/22 10:34:06;;;;;;;8.00;7.30;;;24.10;99.90;;;;;;4994787;28;20450;-62
2021/06/22 10:36:38;;;;;;;9.67;8.97;;;23.90;99.90;;;;;;4991209;28;20214;-61
2021/06/22 10:39:13;;;;;;;6.30;5.80;;;23.60;99.90;;;;;;4988297;28;20273;-61
2021/06/22 10:41:44;;;;;;;7.38;6.68;;;23.20;99.90;;;;;;4986207;28;20649;-61
2021/06/22 10:44:36;;;;;;;7.10;6.50;;;22.80;99.90;;;;;;4981547;28;20294;-60
2021/06/22 10:47:38;;;;;;;9.10;6.95;;;22.80;99.90;;;;;;4982271;28;20195;-60
2021/06/22 10:50:10;;;;;;;6.82;6.22;;;22.60;99.90;;;;;;4984722;28;20211;-58
2021/06/22 10:52:45;;;;;;;7.30;6.15;;;22.70;99.90;;;;;;5003034;28;20191;-58
2021/06/22 10:55:19;;;;;;;7.05;6.45;;;22.70;99.90;;;;;;4999321;28;20626;-59
2021/06/22 10:58:00;;;;;;;6.65;6.15;;;22.70;99.90;;;;;;4992007;28;20302;-61
2021/06/22 11:00:48;;;;;;;5.10;4.60;;;22.60;99.90;;;;;;4989776;28;20195;-60
2021/06/22 11:03:34;;;;;;;5.90;5.40;;;22.70;99.90;;;;;;4993049;28;20664;-60
2021/06/22 11:06:03;;;;;;;4.65;4.25;;;22.50;99.90;;;;;;5002742;28;20190;-60
2021/06/22 11:08:31;;;;;;;5.53;5.03;;;22.40;99.90;;;;;;4999925;28;20211;-60
2021/06/22 11:10:57;;;;;;;4.32;3.92;;;22.60;99.90;;;;;;4991663;28;20187;-60
2021/06/22 11:13:42;;;;;;;5.97;5.53;;;22.70;99.90;;;;;;4991843;28;20184;-58
2021/06/22 11:16:14;;;;;;;5.53;5.13;;;22.60;99.90;;;;;;4994084;28;20222;-59
2021/06/22 11:18:55;;;;;;;5.57;5.15;;;22.50;99.90;;;;;;4991836;28;20665;-57
2021/06/22 11:21:31;;;;;;;5.63;5.10;;;22.30;99.90;;;;;;4992423;28;20189;-58
2021/06/22 11:24:14;;;;;;;7.18;5.90;;;22.10;99.90;;;;;;4998048;28;20191;-58
2021/06/22 11:26:48;;;;;;;6.95;6.35;;;21.70;99.90;;;;;;4996304;28;20551;-58
2021/06/22 11:29:21;;;;;;;7.45;6.75;;;21.70;99.90;;;;;;4992343;28;20302;-59
2021/06/22 11:31:56;;;;;;;8.23;7.45;;;21.80;99.90;;;;;;5010768;28;20179;-59
2021/06/22 11:34:30;;;;;;;8.18;7.38;;;21.70;99.90;;;;;;4992139;28;20195;-59
2021/06/22 11:37:06;;;;;;;8.73;7.50;;;21.60;99.90;;;;;;5004528;28;20203;-59
2021/06/22 11:39:36;;;;;;;8.20;7.50;;;21.60;99.90;;;;;;4997364;28;20224;-58
2021/06/22 11:42:11;;;;;;;7.88;7.15;;;21.50;99.90;;;;;;4993863;28;20196;-59
2021/06/22 11:44:56;;;;;;;8.63;7.38;;;21.40;99.90;;;;;;4996219;28;20556;-57
2021/06/22 11:47:25;;;;;;;7.18;6.47;;;21.30;99.90;;;;;;4990981;28;20574;-57
2021/06/22 11:49:55;;;;;;;6.60;6.00;;;21.20;99.90;;;;;;4991141;28;20640;-56
2021/06/22 11:52:30;;;;;;;6.75;5.82;;;21.20;99.90;;;;;;4998243;28;20190;-57
2021/06/22 11:54:59;;;;;;;5.90;5.40;;;21.20;99.90;;;;;;5002685;28;20179;-58
2021/06/22 11:57:33;;;;;;;5.95;5.35;;;21.30;99.90;;;;;;4987758;28;20247;-59
2021/06/22 12:00:17;;;;;;;8.15;7.35;;;21.10;99.90;;;;;;4989204;28;20561;-59
2021/06/22 12:02:52;;;;;;;6.43;5.68;;;21.00;99.90;;;;;;4987603;28;20827;-58
2021/06/22 12:05:20;;;;;;;6.07;5.43;;;20.90;99.90;;;;;;4990777;28;20186;-59
2021/06/22 12:07:53;;;;;;;5.53;5.10;;;20.70;99.90;;;;;;4999968;28;20640;-59
2021/06/22 12:10:21;;;;;;;5.20;4.72;;;20.80;99.90;;;;;;4992151;28;20692;-57
2021/06/22 12:12:49;;;;;;;5.47;4.88;;;20.90;99.90;;;;;;4992700;28;20183;-56
2021/06/22 12:15:31;;;;;;;6.25;4.65;;;20.90;99.90;;;;;;4992780;28;20214;-57
2021/06/22 12:17:57;;;;;;;5.38;4.97;;;20.90;99.90;;;;;;4990305;28;20207;-56
2021/06/22 12:20:28;;;;;;;5.07;4.67;;;20.90;99.90;;;;;;4993384;28;20206;-56
2021/06/22 12:23:07;;;;;;;5.68;4.25;;;20.80;99.90;;;;;;4991636;28;20456;-57
2021/06/22 12:25:49;;;;;;;5.78;5.03;;;21.00;99.90;;;;;;4993920;28;20647;-61
2021/06/22 12:28:15;;;;;;;4.93;4.53;;;20.80;99.90;;;;;;4992441;28;20198;-59
2021/06/22 12:30:49;;;;;;;5.10;4.18;;;20.80;99.90;;;;;;4988736;28;20237;-56
2021/06/22 12:33:23;;;;;;;4.70;4.30;;;20.80;99.90;;;;;;4987975;28;20573;-56
2021/06/22 12:35:51;;;;;;;5.22;4.82;;;20.90;99.90;;;;;;4988491;28;20277;-57
2021/06/22 12:38:19;;;;;;;4.45;4.15;;;20.90;99.90;;;;;;4988883;28;20577;-56
2021/06/22 12:40:55;;;;;;;5.03;4.63;;;20.80;99.90;;;;;;4986412;28;20191;-57
2021/06/22 12:43:37;;;;;;;5.32;4.93;;;20.60;99.90;;;;;;4981952;28;20187;-57
2021/06/22 12:46:04;;;;;;;6.35;5.75;;;20.70;99.90;;;;;;4987668;28;20232;-57
2021/06/22 12:48:30;;;;;;;8.65;6.85;;;20.60;99.90;;;;;;4980923;28;20621;-57
2021/06/22 12:50:56;;;;;;;9.93;7.72;;;20.40;99.90;;;;;;4988011;28;20234;-59
2021/06/22 12:53:22;;;;;;;11.70;8.93;;;20.00;99.90;;;;;;4990731;28;20623;-57